Time;durP1;ratioP1;P1;durP2;ratioP2;P2;SDS_P1;SDS_P2;PMS_P1;PMS_P2;Temp;Humidity;BMP_temperature;BMP_pressure;BME280_temperature;BME280_humidity;BME280_pressure;Samples;Min_cycle;Max_cycle;Signal;HPM_P1;HPM_P2
2021/12/10 00:02:11;;;;;;;41.60;22.10;;;;;;;2.07;83.67;100584.80;105841;1271;61004;-86
2021/12/10 00:04:42;;;;;;;48.60;23.60;;;;;;;2.15;83.64;100573.47;105719;1272;73034;-86
2021/12/10 00:07:22;;;;;;;41.30;21.00;;;;;;;2.14;83.83;100577.29;105776;1271;72356;-82
2021/12/10 00:09:58;;;;;;;40.70;22.30;;;;;;;2.19;83.84;100586.40;105650;1271;70001;-80
2021/12/10 00:12:40;;;;;;;39.40;21.50;;;;;;;2.21;83.66;100577.90;105684;1274;72299;-80
2021/12/10 00:15:10;;;;;;;42.50;21.40;;;;;;;2.18;83.70;100579.54;105777;1271;61402;-79
2021/12/10 00:17:38;;;;;;;39.50;21.70;;;;;;;2.21;83.76;100584.75;106924;1272;62323;-81
2021/12/10 00:20:10;;;;;;;40.00;19.90;;;;;;;2.25;83.66;100589.93;106752;1272;75384;-83
2021/12/10 00:22:57;;;;;;;41.90;21.70;;;;;;;2.27;83.59;100590.89;105840;1271;70193;-83
2021/12/10 00:25:35;;;;;;;44.40;21.20;;;;;;;2.32;84.06;100582.28;105688;1274;68819;-80
2021/12/10 00:28:19;;;;;;;37.00;20.40;;;;;;;2.33;83.53;100584.29;105698;1273;75065;-84
2021/12/10 00:31:20;;;;;;;40.70;21.10;;;;;;;2.38;83.49;100587.02;105716;1271;64267;-83
2021/12/10 00:34:05;;;;;;;45.90;23.30;;;;;;;2.44;83.39;100588.30;105768;1270;59690;-85
2021/12/10 00:36:36;;;;;;;45.60;23.20;;;;;;;2.51;83.34;100587.69;105691;1274;71762;-84
2021/12/10 00:39:09;;;;;;;39.10;21.30;;;;;;;2.53;83.65;100579.00;105673;1271;70970;-78
2021/12/10 00:41:38;;;;;;;42.60;21.80;;;;;;;2.58;83.65;100583.78;105766;1273;69776;-81
2021/12/10 00:44:07;;;;;;;44.50;21.80;;;;;;;2.61;83.83;100583.13;105430;1275;72605;-80
2021/12/10 00:46:36;;;;;;;43.00;21.70;;;;;;;2.60;83.24;100574.77;105611;1274;59607;-85
2021/12/10 00:49:05;;;;;;;37.30;21.00;;;;;;;2.63;83.46;100564.65;105880;1271;59912;-84
2021/12/10 00:51:36;;;;;;;43.80;22.60;;;;;;;2.69;84.54;100559.10;105720;1274;71963;-85
2021/12/10 00:54:06;;;;;;;39.30;21.70;;;;;;;2.60;83.39;100564.11;105770;1274;70394;-84
2021/12/10 00:56:35;;;;;;;44.00;22.30;;;;;;;2.65;83.59;100556.98;105741;1274;68807;-85
2021/12/10 00:59:04;;;;;;;42.50;22.30;;;;;;;2.63;83.33;100563.09;105637;1274;72077;-85
2021/12/10 01:01:33;;;;;;;43.10;23.50;;;;;;;2.66;83.53;100551.81;105666;1274;59574;-82
2021/12/10 01:04:15;;;;;;;42.20;21.90;;;;;;;2.67;83.67;100548.85;105765;1273;61977;-83
2021/12/10 01:06:46;;;;;;;42.80;22.40;;;;;;;2.69;83.33;100552.52;105774;1274;72843;-80
2021/12/10 01:09:20;;;;;;;48.30;22.50;;;;;;;2.76;83.34;100551.91;105840;1274;69805;-82
2021/12/10 01:11:54;;;;;;;43.90;23.90;;;;;;;2.84;83.50;100555.16;105821;1274;69295;-86
2021/12/10 01:14:57;;;;;;;44.50;23.70;;;;;;;2.89;83.29;100554.09;106026;1274;73025;-89
2021/12/10 01:28:51;;;;;;;41.50;23.50;;;;;;;3.17;84.05;100532.73;105956;1273;69064;-84
2021/12/10 01:31:21;;;;;;;49.50;25.50;;;;;;;3.19;83.49;100526.30;105910;1274;74033;-85
2021/12/10 01:33:51;;;;;;;54.50;26.70;;;;;;;3.22;83.24;100527.52;105884;1274;59738;-84
2021/12/10 01:36:21;;;;;;;44.50;24.10;;;;;;;3.29;83.41;100528.27;105838;1274;59452;-84
2021/12/10 01:38:52;;;;;;;43.30;23.00;;;;;;;3.33;84.26;100523.25;105950;1272;75456;-85
2021/12/10 01:41:24;;;;;;;52.20;25.50;;;;;;;3.28;82.73;100516.23;105887;1274;70890;-84
2021/12/10 01:44:00;;;;;;;56.30;27.20;;;;;;;3.28;83.54;100513.15;105693;1273;68701;-86
2021/12/10 01:46:29;;;;;;;50.00;25.80;;;;;;;3.26;83.20;100508.25;105801;1274;73269;-84
2021/12/10 01:49:04;;;;;;;52.10;25.70;;;;;;;3.33;83.23;100502.42;105666;1273;61093;-85
2021/12/10 01:51:35;;;;;;;52.50;26.20;;;;;;;3.36;83.60;100509.16;105566;1273;61696;-87
2021/12/10 01:54:18;;;;;;;55.30;27.60;;;;;;;3.43;83.39;100502.30;105658;1274;75974;-82
2021/12/10 01:56:48;;;;;;;52.40;26.90;;;;;;;3.50;83.92;100491.33;105641;1274;72776;-81
2021/12/10 01:59:18;;;;;;;53.00;27.30;;;;;;;3.52;83.91;100482.80;105591;1274;69180;-80
2021/12/10 02:01:51;;;;;;;58.20;28.90;;;;;;;3.52;84.37;100479.68;105414;1273;72569;-83
2021/12/10 02:04:22;;;;;;;52.10;26.00;;;;;;;3.52;84.93;100474.36;105798;1271;60227;-84
2021/12/10 02:06:51;;;;;;;52.70;26.20;;;;;;;3.48;84.98;100472.66;106970;1271;59825;-81
2021/12/10 02:09:21;;;;;;;47.50;24.80;;;;;;;3.47;84.69;100461.48;105696;1273;73618;-83
2021/12/10 02:11:51;;;;;;;49.90;25.10;;;;;;;3.48;84.85;100452.33;105760;1274;71645;-74
2021/12/10 02:14:20;;;;;;;49.10;23.20;;;;;;;3.48;85.14;100445.77;105766;1271;69886;-81
2021/12/10 02:16:51;;;;;;;53.00;24.70;;;;;;;3.55;85.28;100445.45;105650;1275;72901;-81
2021/12/10 02:19:19;;;;;;;49.50;24.10;;;;;;;3.58;85.26;100442.04;105830;1271;63121;-85
2021/12/10 02:21:49;;;;;;;46.30;22.30;;;;;;;3.67;86.19;100446.77;105898;1271;60920;-86
2021/12/10 02:24:18;;;;;;;46.40;23.50;;;;;;;3.44;86.06;100448.52;105846;1274;74328;-88
2021/12/10 02:26:56;;;;;;;48.30;23.70;;;;;;;3.44;86.27;100440.77;105862;1271;69852;-83
2021/12/10 02:29:28;;;;;;;48.60;22.60;;;;;;;3.55;86.25;100440.98;105777;1273;70264;-85
2021/12/10 02:31:57;;;;;;;52.90;23.50;;;;;;;3.61;86.08;100432.59;105922;1274;71964;-82
2021/12/10 02:34:28;;;;;;;47.20;23.10;;;;;;;3.61;85.79;100428.09;105992;1271;63428;-85
2021/12/10 02:36:57;;;;;;;57.10;25.60;;;;;;;3.69;85.68;100421.70;105986;1275;60158;-85
2021/12/10 02:39:26;;;;;;;53.90;24.00;;;;;;;3.74;85.57;100418.54;105969;1272;73016;-85
2021/12/10 02:41:55;;;;;;;54.50;23.80;;;;;;;3.72;85.27;100417.44;105949;1275;70294;-84
2021/12/10 02:44:28;;;;;;;54.20;24.10;;;;;;;3.70;85.40;100417.16;105990;1271;67986;-84
2021/12/10 02:46:57;;;;;;;49.30;24.20;;;;;;;3.67;85.42;100414.56;105971;1271;74003;-83
2021/12/10 02:49:27;;;;;;;51.40;25.30;;;;;;;3.69;85.67;100415.48;105966;1272;63671;-81
2021/12/10 02:51:56;;;;;;;50.90;25.20;;;;;;;3.77;85.61;100410.63;106032;1273;62741;-84
2021/12/10 02:54:33;;;;;;;53.60;24.50;;;;;;;3.81;84.91;100411.98;106329;1274;74223;-82
2021/12/10 02:57:08;;;;;;;56.90;24.80;;;;;;;3.85;85.17;100404.02;107470;1274;70409;-83
2021/12/10 02:59:37;;;;;;;46.50;25.10;;;;;;;3.90;85.48;100407.76;106070;1273;70630;-85
2021/12/10 03:02:11;;;;;;;61.80;27.40;;;;;;;3.90;85.73;100407.22;106091;1273;74368;-84
2021/12/10 03:04:41;;;;;;;58.80;25.50;;;;;;;3.90;85.79;100403.60;105878;1272;62183;-85
2021/12/10 03:07:16;;;;;;;56.80;25.50;;;;;;;3.95;86.54;100399.39;105984;1273;60864;-84
2021/12/10 03:09:47;;;;;;;53.40;25.30;;;;;;;3.98;86.08;100400.45;105875;1271;73018;-83
2021/12/10 03:12:16;;;;;;;53.70;24.50;;;;;;;3.88;85.61;100395.95;105833;1274;70468;-83
2021/12/10 03:14:48;;;;;;;56.70;24.60;;;;;;;3.91;85.41;100384.96;105965;1273;67975;-83
2021/12/10 03:17:29;;;;;;;63.70;25.30;;;;;;;3.85;85.94;100384.59;105901;1271;71428;-83
2021/12/10 03:19:58;;;;;;;49.40;25.10;;;;;;;3.80;86.03;100378.24;105906;1271;60570;-85
2021/12/10 03:22:27;;;;;;;52.90;25.40;;;;;;;3.82;86.37;100366.26;105834;1273;60962;-83
2021/12/10 03:24:58;;;;;;;52.20;25.30;;;;;;;3.87;86.28;100360.16;105879;1273;72723;-80
2021/12/10 03:27:26;;;;;;;47.30;23.40;;;;;;;3.96;87.02;100353.88;105745;1270;72922;-82
2021/12/10 03:29:55;;;;;;;47.20;23.20;;;;;;;3.93;86.69;100353.30;105568;1271;72318;-77
2021/12/10 03:32:28;;;;;;;41.60;22.70;;;;;;;3.97;87.35;100348.12;105726;1271;75792;-83
2021/12/10 03:35:00;;;;;;;44.90;21.00;;;;;;;3.97;87.35;100343.30;105719;1271;61421;-82
2021/12/10 03:37:29;;;;;;;43.00;21.90;;;;;;;3.98;87.56;100343.39;105741;1273;59758;-84
2021/12/10 03:39:58;;;;;;;42.80;22.30;;;;;;;4.01;87.73;100347.41;105592;1269;74174;-82
2021/12/10 03:42:26;;;;;;;43.80;22.10;;;;;;;4.11;87.52;100346.89;105753;1271;73190;-83
2021/12/10 03:44:55;;;;;;;43.30;21.80;;;;;;;4.16;87.74;100343.56;105735;1271;70605;-73
2021/12/10 03:47:24;;;;;;;41.50;22.00;;;;;;;4.18;87.31;100350.15;105804;1271;71312;-84
2021/12/10 03:49:53;;;;;;;44.00;21.60;;;;;;;4.21;87.35;100358.45;105842;1273;62402;-84
2021/12/10 03:52:22;;;;;;;51.00;21.60;;;;;;;4.33;87.77;100360.92;105903;1271;60144;-84
2021/12/10 03:54:51;;;;;;;51.00;23.30;;;;;;;4.34;87.70;100350.20;105659;1274;72549;-83
2021/12/10 03:57:20;;;;;;;56.30;24.10;;;;;;;4.36;88.04;100352.83;105885;1269;72948;-83
2021/12/10 03:59:49;;;;;;;51.60;23.80;;;;;;;4.31;87.83;100345.52;105801;1273;70819;-84
2021/12/10 04:02:18;;;;;;;54.50;27.60;;;;;;;4.32;88.10;100335.14;105685;1273;73830;-84
2021/12/10 04:04:49;;;;;;;63.10;26.50;;;;;;;4.36;87.92;100340.06;105846;1273;61018;-81
2021/12/10 04:07:27;;;;;;;46.60;20.90;;;;;;;4.36;88.32;100349.55;105818;1273;61743;-82
2021/12/10 04:09:55;;;;;;;48.70;22.30;;;;;;;4.53;88.84;100351.08;105612;1273;75426;-83
2021/12/10 04:12:24;;;;;;;55.50;24.80;;;;;;;4.44;88.22;100344.48;105656;1274;72367;-83
2021/12/10 04:14:53;;;;;;;65.40;26.90;;;;;;;4.37;88.32;100339.85;105781;1273;69664;-84
2021/12/10 04:17:23;;;;;;;52.70;25.10;;;;;;;4.46;88.63;100351.45;105678;1273;74441;-83
2021/12/10 04:19:52;;;;;;;78.90;29.70;;;;;;;4.43;88.44;100346.61;105852;1271;63031;-85
2021/12/10 04:22:22;;;;;;;54.10;24.70;;;;;;;4.43;88.65;100344.21;105615;1274;59170;-82
2021/12/10 04:24:51;;;;;;;62.50;27.60;;;;;;;4.44;88.71;100341.05;105547;1274;71760;-81
2021/12/10 04:27:20;;;;;;;56.00;28.40;;;;;;;4.38;88.63;100334.98;105681;1273;69812;-82
2021/12/10 04:29:52;;;;;;;62.80;27.30;;;;;;;4.30;87.87;100324.52;105702;1273;68778;-82
2021/12/10 04:32:21;;;;;;;65.70;30.00;;;;;;;4.37;88.21;100334.33;105598;1274;72074;-82
2021/12/10 04:34:51;;;;;;;66.40;28.60;;;;;;;4.46;89.24;100330.77;105697;1273;61769;-85
2021/12/10 04:37:19;;;;;;;51.00;23.20;;;;;;;4.50;89.23;100333.80;105850;1271;61445;-86
2021/12/10 04:39:48;;;;;;;47.80;22.90;;;;;;;4.44;89.30;100323.27;105344;1274;455698;-84
2021/12/10 04:42:21;;;;;;;39.80;18.50;;;;;;;4.43;88.49;100312.10;105938;1273;73284;-84
2021/12/10 04:44:57;;;;;;;42.80;16.90;;;;;;;4.33;87.20;100326.08;105642;1273;69360;-80
2021/12/10 04:47:26;;;;;;;68.60;28.10;;;;;;;4.12;86.56;100342.52;106588;1271;72226;-83
2021/12/10 04:49:56;;;;;;;53.20;25.20;;;;;;;4.02;87.41;100329.63;105884;1271;62634;-82
2021/12/10 04:52:25;;;;;;;67.60;30.20;;;;;;;3.96;87.24;100328.70;105782;1275;60971;-80
2021/12/10 04:54:54;;;;;;;75.80;34.20;;;;;;;3.84;87.24;100317.39;105755;1273;73556;-81
2021/12/10 04:57:23;;;;;;;67.30;32.20;;;;;;;3.71;87.39;100320.15;105754;1274;70162;-80
2021/12/10 04:59:52;;;;;;;70.50;28.70;;;;;;;3.79;87.91;100322.86;105751;1273;69173;-82
2021/12/10 05:02:21;;;;;;;72.20;31.10;;;;;;;3.83;88.27;100321.42;105884;1271;71233;-85
2021/12/10 05:04:56;;;;;;;50.70;22.40;;;;;;;3.77;88.31;100315.70;105852;1272;63445;-86
2021/12/10 05:07:25;;;;;;;43.40;18.90;;;;;;;3.67;86.65;100311.73;106063;1269;61670;-85
2021/12/10 05:09:53;;;;;;;59.80;25.40;;;;;;;3.49;86.04;100314.36;105921;1271;75430;-80
2021/12/10 05:12:23;;;;;;;49.80;21.20;;;;;;;3.33;86.55;100314.27;105843;1272;72789;-81
2021/12/10 05:14:58;;;;;;;36.60;14.60;;;;;;;3.32;86.84;100316.71;105813;1273;70972;-83
2021/12/10 05:17:30;;;;;;;59.10;21.80;;;;;;;3.19;86.46;100320.27;105891;1272;73849;-74
2021/12/10 05:20:00;;;;;;;51.80;19.30;;;;;;;3.08;86.76;100315.63;105949;1273;62300;-77
2021/12/10 05:22:29;;;;;;;76.90;26.60;;;;;;;2.99;86.91;100315.38;106081;1271;59799;-82
2021/12/10 05:24:58;;;;;;;59.70;25.50;;;;;;;2.92;87.14;100321.38;105657;1274;74088;-83
2021/12/10 05:27:26;;;;;;;57.50;22.80;;;;;;;2.78;87.51;100326.52;105908;1273;72032;-84
2021/12/10 05:29:56;;;;;;;63.70;24.10;;;;;;;2.79;87.70;100325.24;106077;1273;71463;-82
2021/12/10 05:32:25;;;;;;;93.50;32.50;;;;;;;2.74;88.02;100329.80;106054;1271;70800;-83
2021/12/10 05:34:54;;;;;;;82.70;32.30;;;;;;;2.73;88.10;100333.45;106899;1272;61354;-80
2021/12/10 05:37:24;;;;;;;80.50;28.10;;;;;;;2.69;88.50;100332.45;106591;1274;59060;-79
2021/12/10 05:39:53;;;;;;;76.40;28.40;;;;;;;2.81;88.57;100328.78;105761;1272;74813;-85
2021/12/10 05:42:21;;;;;;;71.30;26.70;;;;;;;2.78;88.15;100329.28;105897;1274;70862;-84
2021/12/10 05:44:51;;;;;;;22.50;10.60;;;;;;;2.69;87.77;100333.46;105865;1275;69224;-85
2021/12/10 05:47:20;;;;;;;50.70;20.40;;;;;;;2.62;86.77;100339.98;105964;1274;72815;-84
2021/12/10 05:49:49;;;;;;;50.80;19.70;;;;;;;2.50;87.18;100329.36;105709;1275;60832;-84
2021/12/10 05:52:19;;;;;;;54.50;20.00;;;;;;;2.45;87.33;100321.14;105869;1271;58997;-82
2021/12/10 05:54:50;;;;;;;42.70;18.60;;;;;;;2.45;87.41;100327.34;105972;1274;72638;-87
2021/12/10 05:57:19;;;;;;;40.90;14.20;;;;;;;2.35;87.30;100327.42;105640;1274;69718;-86
2021/12/10 05:59:48;;;;;;;56.00;19.40;;;;;;;2.31;87.34;100329.48;105784;1271;68466;-84
2021/12/10 06:02:17;;;;;;;52.90;19.80;;;;;;;2.25;87.02;100335.09;105646;1272;72200;-87
2021/12/10 06:04:46;;;;;;;66.10;25.10;;;;;;;2.18;87.42;100332.51;105608;1274;60619;-84
2021/12/10 06:07:15;;;;;;;62.60;25.20;;;;;;;2.15;87.67;100335.03;105816;1273;58882;-83
2021/12/10 06:09:44;;;;;;;69.20;26.30;;;;;;;2.10;87.69;100331.30;105742;1273;73524;-85
2021/12/10 06:12:13;;;;;;;88.90;31.30;;;;;;;2.06;87.78;100328.22;105703;1271;70442;-84
2021/12/10 06:14:42;;;;;;;87.90;30.20;;;;;;;1.98;88.11;100322.35;105925;1273;67807;-86
2021/12/10 06:17:11;;;;;;;102.10;39.20;;;;;;;1.99;88.70;100323.33;105814;1272;72968;-86
2021/12/10 06:19:40;;;;;;;103.30;41.70;;;;;;;2.05;89.10;100320.86;105795;1274;61407;-84
2021/12/10 06:22:14;;;;;;;100.40;37.90;;;;;;;2.17;89.31;100322.20;105879;1271;59719;-85
2021/12/10 06:24:43;;;;;;;96.80;37.30;;;;;;;2.31;88.96;100317.29;105790;1274;73529;-84
2021/12/10 06:27:12;;;;;;;95.10;38.80;;;;;;;2.45;88.85;100320.98;105674;1274;73258;-82
2021/12/10 06:29:42;;;;;;;89.90;37.80;;;;;;;2.50;88.41;100310.96;105666;1275;70494;-87
2021/12/10 06:32:11;;;;;;;97.10;38.70;;;;;;;2.61;87.73;100312.19;105662;1274;72462;-83
2021/12/10 06:34:40;;;;;;;92.10;39.70;;;;;;;2.74;87.34;100308.85;105704;1273;61373;-84
2021/12/10 06:37:09;;;;;;;93.10;37.40;;;;;;;2.86;86.81;100310.30;105732;1270;60942;-82
2021/12/10 06:39:38;;;;;;;78.90;35.80;;;;;;;2.95;87.04;100306.14;105569;1274;72614;-82
2021/12/10 06:42:07;;;;;;;77.80;34.30;;;;;;;3.04;86.68;100297.29;105727;1272;72828;-84
2021/12/10 06:44:55;;;;;;;79.20;35.50;;;;;;;3.09;86.06;100292.19;105763;1271;70538;-84
2021/12/10 06:47:24;;;;;;;85.00;37.80;;;;;;;3.19;86.37;100295.50;105721;1273;73204;-81
2021/12/10 06:49:53;;;;;;;71.10;33.90;;;;;;;3.27;85.90;100293.78;105667;1273;60247;-85
2021/12/10 06:52:22;;;;;;;68.70;31.30;;;;;;;3.35;85.34;100283.36;105763;1271;60119;-84
2021/12/10 06:54:51;;;;;;;63.90;30.90;;;;;;;3.44;84.91;100279.46;105873;1271;75484;-83
2021/12/10 06:57:20;;;;;;;82.40;33.30;;;;;;;3.51;85.35;100278.82;105850;1275;71725;-81
2021/12/10 06:59:49;;;;;;;92.50;35.40;;;;;;;3.55;85.84;100286.50;105758;1273;68196;-83
2021/12/10 07:02:18;;;;;;;77.40;33.30;;;;;;;3.57;85.62;100282.46;105609;1275;75046;-84
2021/12/10 07:04:47;;;;;;;85.60;37.80;;;;;;;3.57;84.99;100286.56;105858;1271;61727;-83
2021/12/10 07:07:16;;;;;;;73.50;35.60;;;;;;;3.63;84.85;100284.73;105875;1275;62266;-86
2021/12/10 07:09:45;;;;;;;79.90;34.90;;;;;;;3.74;84.07;100278.34;105810;1271;73925;-83
2021/12/10 07:12:15;;;;;;;80.60;36.20;;;;;;;3.84;84.20;100279.52;105843;1272;73281;-84
2021/12/10 07:14:45;;;;;;;87.60;39.20;;;;;;;3.87;83.79;100287.13;105906;1271;71144;-83
2021/12/10 07:17:14;;;;;;;84.60;39.60;;;;;;;3.94;84.45;100281.61;105620;1275;72716;-86
2021/12/10 07:19:44;;;;;;;81.20;39.90;;;;;;;4.03;83.63;100284.07;105451;1274;59846;-86
2021/12/10 07:22:13;;;;;;;83.60;40.30;;;;;;;4.13;83.31;100281.48;105774;1273;62704;-85
2021/12/10 07:24:42;;;;;;;79.80;37.60;;;;;;;4.27;84.61;100277.99;105632;1275;74347;-83
2021/12/10 07:27:12;;;;;;;73.30;35.20;;;;;;;4.32;86.09;100276.67;105764;1275;70039;-85
2021/12/10 07:29:41;;;;;;;76.10;35.60;;;;;;;4.39;83.91;100269.55;105815;1275;69581;-86
2021/12/10 07:32:11;;;;;;;91.40;36.20;;;;;;;4.51;84.48;100268.02;105593;1276;72287;-85
2021/12/10 07:34:40;;;;;;;83.90;35.80;;;;;;;4.65;86.67;100271.25;105840;1271;61527;-86
2021/12/10 07:37:10;;;;;;;82.60;39.70;;;;;;;4.60;88.24;100273.80;105744;1275;60066;-86
2021/12/10 07:39:39;;;;;;;82.10;37.30;;;;;;;4.27;83.74;100273.81;105674;1274;74879;-86
2021/12/10 07:42:08;;;;;;;58.30;26.10;;;;;;;4.48;86.96;100279.79;106095;1275;72318;-86
2021/12/10 07:44:37;;;;;;;74.40;34.90;;;;;;;4.43;88.02;100283.15;105757;1272;71352;-85
2021/12/10 07:47:11;;;;;;;69.60;33.70;;;;;;;4.29;88.09;100278.39;105718;1271;70766;-85
2021/12/10 07:49:41;;;;;;;75.80;33.90;;;;;;;4.34;87.14;100274.36;105761;1270;60824;-87
2021/12/10 07:52:22;;;;;;;76.40;35.00;;;;;;;4.41;86.49;100278.06;105920;1275;60213;-83
2021/12/10 07:54:51;;;;;;;64.20;33.50;;;;;;;4.52;85.16;100285.05;105810;1275;73733;-85
2021/12/10 07:57:22;;;;;;;78.90;37.50;;;;;;;4.64;86.21;100283.23;106017;1273;72103;-84
2021/12/10 07:59:50;;;;;;;75.70;36.00;;;;;;;4.72;86.33;100277.09;105691;1272;71653;-85
2021/12/10 08:02:19;;;;;;;84.10;38.30;;;;;;;4.82;84.10;100276.20;105506;1276;72090;-85
2021/12/10 08:04:48;;;;;;;87.40;41.90;;;;;;;4.96;85.77;100281.11;105642;1273;60552;-84
2021/12/10 08:07:17;;;;;;;86.50;39.70;;;;;;;5.01;86.99;100286.69;105784;1275;60143;-82
2021/12/10 08:09:46;;;;;;;81.90;40.10;;;;;;;4.95;82.98;100288.75;105877;1276;72925;-86
2021/12/10 08:12:15;;;;;;;79.60;38.70;;;;;;;5.07;82.67;100280.31;106244;1274;69797;-85
2021/12/10 08:14:46;;;;;;;79.50;36.70;;;;;;;5.21;83.63;100276.44;106493;1270;69159;-85
2021/12/10 08:17:15;;;;;;;77.90;38.70;;;;;;;5.38;85.48;100273.20;106380;1275;74578;-84
2021/12/10 08:19:44;;;;;;;79.90;37.90;;;;;;;5.45;83.18;100271.94;106250;1275;62234;-87
2021/12/10 08:22:14;;;;;;;72.80;37.00;;;;;;;5.57;81.61;100261.58;106087;1271;60426;-84
2021/12/10 08:24:43;;;;;;;71.50;35.40;;;;;;;5.71;84.04;100262.97;105772;1275;72263;-84
2021/12/10 08:27:13;;;;;;;75.90;36.80;;;;;;;5.79;83.27;100260.61;105596;1275;70658;-81
2021/12/10 08:29:43;;;;;;;79.60;39.30;;;;;;;5.89;81.60;100258.80;105927;1272;70992;-86
2021/12/10 08:32:15;;;;;;;76.70;40.00;;;;;;;5.98;81.46;100251.05;105788;1275;72706;-83
2021/12/10 08:34:44;;;;;;;71.40;38.10;;;;;;;6.05;79.95;100249.73;105709;1275;59837;-85
2021/12/10 08:37:13;;;;;;;71.70;37.20;;;;;;;6.20;82.28;100245.91;105989;1271;60391;-84
2021/12/10 08:39:41;;;;;;;76.30;38.40;;;;;;;6.24;81.27;100245.13;105762;1271;76121;-85
2021/12/10 08:42:13;;;;;;;77.10;39.20;;;;;;;6.30;80.22;100243.33;105685;1275;73710;-85
2021/12/10 08:44:43;;;;;;;80.40;42.10;;;;;;;6.40;80.16;100235.45;105978;1274;68740;-85
2021/12/10 08:47:12;;;;;;;78.20;41.60;;;;;;;6.59;84.65;100233.59;105534;1274;74982;-78
2021/12/10 08:49:42;;;;;;;76.70;42.20;;;;;;;6.44;80.42;100227.77;105680;1273;61827;-82
2021/12/10 08:52:11;;;;;;;76.40;41.50;;;;;;;6.54;80.60;100224.40;105564;1274;61152;-84
2021/12/10 08:54:41;;;;;;;76.20;40.00;;;;;;;6.66;81.89;100213.27;106402;1273;72999;-83
2021/12/10 08:57:13;;;;;;;77.00;43.30;;;;;;;6.73;81.42;100208.61;106325;1275;71597;-77
2021/12/10 08:59:42;;;;;;;77.20;40.30;;;;;;;6.73;80.28;100206.75;107107;1272;70899;-82
2021/12/10 09:02:14;;;;;;;72.30;39.30;;;;;;;6.85;81.35;100207.16;107043;1271;71933;-85
2021/12/10 09:04:42;;;;;;;72.70;38.30;;;;;;;6.86;81.41;100210.55;105829;1271;62583;-87
2021/12/10 09:07:14;;;;;;;54.60;31.90;;;;;;;7.01;84.01;100206.27;105832;1271;59380;-83
2021/12/10 09:09:46;;;;;;;71.50;39.50;;;;;;;7.14;83.11;100196.95;105685;1272;74819;-85
2021/12/10 09:12:25;;;;;;;67.50;35.00;;;;;;;6.96;81.51;100192.80;105662;1274;72525;-84
2021/12/10 09:14:56;;;;;;;65.20;34.20;;;;;;;7.03;82.45;100191.09;105867;1271;68115;-87
2021/12/10 09:17:27;;;;;;;48.60;24.70;;;;;;;6.89;82.71;100183.89;105821;1274;73186;-89
2021/12/10 09:20:00;;;;;;;62.20;31.10;;;;;;;6.92;81.28;100181.25;105718;1275;61938;-86
2021/12/10 09:22:29;;;;;;;57.60;29.30;;;;;;;6.88;81.33;100174.27;105713;1275;59004;-88
2021/12/10 09:24:57;;;;;;;64.80;31.40;;;;;;;6.78;80.95;100170.59;105880;1275;75444;-85
2021/12/10 09:27:26;;;;;;;66.70;33.30;;;;;;;6.61;82.00;100167.03;105580;1275;72544;-85
2021/12/10 09:29:56;;;;;;;65.80;32.20;;;;;;;6.60;83.11;100163.27;105843;1275;72271;-85
2021/12/10 09:32:26;;;;;;;66.90;31.30;;;;;;;6.63;81.78;100163.96;105841;1274;73968;-87
2021/12/10 09:34:57;;;;;;;62.30;28.90;;;;;;;6.50;82.96;100168.92;105873;1275;63492;-85
2021/12/10 09:37:26;;;;;;;49.30;24.60;;;;;;;6.48;83.05;100163.20;105549;1271;59618;-86
2021/12/10 09:39:55;;;;;;;52.90;28.50;;;;;;;6.33;81.59;100154.65;105705;1271;76010;-88
2021/12/10 09:42:23;;;;;;;61.20;30.60;;;;;;;6.19;82.42;100154.95;105811;1273;72570;-87
2021/12/10 09:44:53;;;;;;;54.80;28.00;;;;;;;6.14;82.22;100158.91;105820;1272;70790;-84
2021/12/10 09:47:22;;;;;;;65.20;29.60;;;;;;;6.06;82.53;100152.54;105833;1272;72904;-89
2021/12/10 09:49:53;;;;;;;62.20;29.60;;;;;;;6.17;83.24;100150.77;105670;1275;63308;-87
2021/12/10 09:52:25;;;;;;;63.40;31.10;;;;;;;6.26;82.38;100137.39;105859;1271;62790;-87
2021/12/10 09:54:54;;;;;;;60.10;31.50;;;;;;;6.20;81.87;100127.64;105795;1272;76115;-85
2021/12/10 09:57:29;;;;;;;67.30;33.50;;;;;;;6.35;81.37;100114.20;105736;1272;73063;-85
2021/12/10 10:00:47;;;;;;;48.80;27.20;;;;;;;6.55;81.78;100118.59;105837;1272;69513;-88
2021/12/10 10:03:21;;;;;;;53.90;27.80;;;;;;;6.93;84.20;100125.61;105879;1275;71271;-79
2021/12/10 10:05:49;;;;;;;59.50;29.40;;;;;;;7.21;80.87;100122.75;105861;1275;59561;-87
2021/12/10 10:08:22;;;;;;;65.00;32.10;;;;;;;7.28;78.91;100124.64;105853;1275;61471;-82
2021/12/10 10:10:56;;;;;;;83.00;39.10;;;;;;;7.21;79.65;100122.21;105787;1272;73743;-84
2021/12/10 10:13:29;;;;;;;79.40;40.00;;;;;;;7.18;81.37;100122.73;105747;1275;71699;-84
2021/12/10 10:15:59;;;;;;;95.80;45.70;;;;;;;7.30;80.84;100124.19;105599;1272;69657;-85
2021/12/10 10:18:29;;;;;;;119.10;53.20;;;;;;;7.34;81.49;100121.70;105623;1275;73377;-88
2021/12/10 10:21:03;;;;;;;123.00;53.70;;;;;;;7.37;81.30;100111.04;105509;1276;60131;-85
2021/12/10 10:23:32;;;;;;;93.00;43.30;;;;;;;7.41;80.21;100103.86;105735;1273;60596;-87
2021/12/10 10:26:07;;;;;;;87.20;40.10;;;;;;;7.61;82.21;100092.29;105565;1275;75997;-89
2021/12/10 10:28:36;;;;;;;89.10;45.40;;;;;;;7.84;83.37;100092.38;105760;1273;70868;-86
2021/12/10 10:31:12;;;;;;;83.50;43.80;;;;;;;8.06;82.52;100091.83;105637;1272;67014;-85
2021/12/10 10:33:41;;;;;;;91.70;47.50;;;;;;;8.16;78.66;100085.88;105557;1275;74797;-84
2021/12/10 10:36:19;;;;;;;70.40;38.90;;;;;;;8.34;78.48;100089.83;105698;1275;59604;-85
2021/12/10 10:38:51;;;;;;;47.70;26.10;;;;;;;8.59;80.72;100093.94;105668;1275;62242;-87
2021/12/10 10:41:22;;;;;;;53.20;29.60;;;;;;;8.67;79.50;100092.81;105439;1275;72484;-86
2021/12/10 10:43:51;;;;;;;46.80;27.10;;;;;;;8.98;80.55;100092.02;105670;1275;72650;-85
2021/12/10 10:46:19;;;;;;;42.30;24.40;;;;;;;9.21;80.43;100089.95;105685;1273;71667;-82
2021/12/10 10:48:48;;;;;;;32.90;20.00;;;;;;;9.24;78.48;100082.27;105642;1275;74901;-87
2021/12/10 10:51:34;;;;;;;30.80;18.40;;;;;;;9.29;79.42;100073.91;105513;1275;62616;-87
2021/12/10 10:54:07;;;;;;;16.60;12.20;;;;;;;9.50;80.36;100069.80;105506;1275;61223;-82
2021/12/10 10:56:41;;;;;;;18.20;12.50;;;;;;;9.64;80.90;100068.38;106060;1273;73390;-85
2021/12/10 10:59:17;;;;;;;18.10;11.20;;;;;;;9.77;81.09;100063.85;106622;1273;72189;-86
2021/12/10 11:01:57;;;;;;;20.60;12.90;;;;;;;9.86;81.08;100065.39;105672;1272;71648;-86
2021/12/10 11:04:51;;;;;;;21.40;12.00;;;;;;;9.92;80.79;100066.36;105587;1274;72558;-84
2021/12/10 11:07:24;;;;;;;13.90;10.70;;;;;;;9.98;80.08;100065.00;105862;1273;62937;-80
2021/12/10 11:10:02;;;;;;;14.50;9.30;;;;;;;10.04;79.84;100065.86;105700;1275;60302;-80
2021/12/10 11:12:37;;;;;;;18.00;10.20;;;;;;;10.00;80.18;100069.64;105595;1272;74099;-82
2021/12/10 11:15:10;;;;;;;16.30;9.30;;;;;;;9.96;80.12;100065.86;105639;1275;70282;-80
2021/12/10 11:17:49;;;;;;;14.70;9.30;;;;;;;9.98;80.09;100059.23;105519;1274;69204;-81
2021/12/10 11:20:28;;;;;;;20.80;12.90;;;;;;;10.09;79.89;100060.05;105542;1274;74647;-86
2021/12/10 11:23:01;;;;;;;16.50;10.40;;;;;;;10.16;79.68;100056.55;105902;1273;59141;-83
2021/12/10 11:25:45;;;;;;;15.60;9.10;;;;;;;10.13;79.73;100046.21;105660;1274;61378;-87
2021/12/10 11:28:31;;;;;;;14.60;9.70;;;;;;;10.10;79.67;100039.80;105670;1273;75027;-85
2021/12/10 11:31:14;;;;;;;15.90;9.90;;;;;;;10.10;79.85;100032.70;105784;1270;73933;-84
2021/12/10 11:33:50;;;;;;;;;;;;;;;10.17;79.68;100026.05;105727;1272;68463;-83
2021/12/10 11:36:25;;;;;;;18.20;10.30;;;;;;;10.21;79.60;100013.50;105702;1269;74872;-85
2021/12/10 11:38:57;;;;;;;18.60;10.00;;;;;;;10.41;79.24;100009.28;105927;1273;62328;-87
2021/12/10 11:41:27;;;;;;;17.20;10.00;;;;;;;10.61;78.83;100008.68;105759;1269;60393;-84